createdAt,value
2019-05-18T00:00:11.441Z,8.944092
2019-05-18T00:01:21.002Z,8.92395
2019-05-18T00:02:30.491Z,8.893738
2019-05-18T00:03:40.022Z,8.883667
2019-05-18T00:04:49.538Z,8.883667
2019-05-18T00:05:59.058Z,8.873596
2019-05-18T00:07:08.588Z,8.853455
2019-05-18T00:08:18.112Z,8.843384
2019-05-18T00:09:27.626Z,8.843384
2019-05-18T00:10:37.152Z,8.813171
2019-05-18T00:11:46.673Z,8.79303
2019-05-18T00:12:56.192Z,8.762817
2019-05-18T00:14:05.730Z,8.762817
2019-05-18T00:15:15.238Z,8.702393
2019-05-18T00:16:24.764Z,8.662109
2019-05-18T00:17:34.281Z,8.611755
2019-05-18T00:18:43.830Z,8.611755
2019-05-18T00:19:53.342Z,8.631897
2019-05-18T00:21:02.851Z,8.641968
2019-05-18T00:22:12.350Z,8.611755
2019-05-18T00:23:21.850Z,8.631897
2019-05-18T00:24:31.399Z,8.631897
2019-05-18T00:25:40.937Z,8.611755
2019-05-18T00:26:50.459Z,8.601685
2019-05-18T00:27:59.956Z,8.561401
2019-05-18T00:29:09.644Z,8.581543
2019-05-18T00:30:19.158Z,8.581543
2019-05-18T00:31:28.677Z,8.581543
2019-05-18T00:32:38.187Z,8.581543
2019-05-18T00:33:47.691Z,8.521118
2019-05-18T00:34:57.236Z,8.511047
2019-05-18T00:36:06.757Z,8.480835
2019-05-18T00:37:16.282Z,8.480835
2019-05-18T00:38:25.790Z,8.490906
2019-05-18T00:39:35.337Z,8.480835
2019-05-18T00:40:44.865Z,8.511047
2019-05-18T00:41:54.368Z,8.521118
2019-05-18T00:43:03.880Z,8.551331
2019-05-18T00:44:13.412Z,8.581543
2019-05-18T00:45:22.944Z,8.601685
2019-05-18T00:46:32.441Z,8.581543
2019-05-18T00:47:42.426Z,8.601685
2019-05-18T00:48:51.471Z,8.611755
2019-05-18T00:50:01.013Z,8.581543
2019-05-18T00:51:10.513Z,8.581543
2019-05-18T00:52:21.003Z,8.531189
2019-05-18T00:53:30.527Z,8.521118
2019-05-18T00:54:40.078Z,8.511047
2019-05-18T00:55:49.653Z,8.450623
2019-05-18T00:56:59.184Z,8.42041
2019-05-18T00:58:08.720Z,8.380127
2019-05-18T00:59:18.244Z,8.359985
2019-05-18T01:00:27.793Z,8.370056
2019-05-18T01:01:37.307Z,8.339844
2019-05-18T01:02:46.806Z,8.339844
2019-05-18T01:03:56.380Z,8.329773
2019-05-18T01:05:05.886Z,8.339844
2019-05-18T01:06:15.484Z,8.309631
2019-05-18T01:07:25.006Z,8.299561
2019-05-18T01:08:34.509Z,8.329773
2019-05-18T01:09:44.019Z,8.309631
2019-05-18T01:10:53.541Z,8.309631
2019-05-18T01:12:03.072Z,8.309631
2019-05-18T01:13:12.576Z,8.279419
2019-05-18T01:14:22.091Z,8.279419
2019-05-18T01:15:31.669Z,8.299561
2019-05-18T01:16:41.190Z,8.299561
2019-05-18T01:17:57.164Z,8.299561
2019-05-18T01:19:01.194Z,8.299561
2019-05-18T01:20:10.724Z,8.279419
2019-05-18T01:21:20.260Z,8.259277
2019-05-18T01:22:29.769Z,8.188782
2019-05-18T01:23:39.292Z,8.148499
2019-05-18T01:24:48.832Z,8.098145
2019-05-18T01:25:58.422Z,8.098145
2019-05-18T01:27:07.924Z,8.118286
2019-05-18T01:28:17.433Z,8.118286
2019-05-18T01:29:26.962Z,8.098145
2019-05-18T01:30:36.502Z,8.088074
2019-05-18T01:31:46.025Z,8.088074
2019-05-18T01:32:55.549Z,8.078003
2019-05-18T01:34:05.072Z,8.078003
2019-05-18T01:35:14.583Z,8.027649
2019-05-18T01:36:24.175Z,8.047791
2019-05-18T01:37:33.686Z,8.078003
2019-05-18T01:38:43.211Z,8.088074
2019-05-18T01:39:52.724Z,8.078003
2019-05-18T01:41:02.255Z,8.098145
2019-05-18T01:42:11.798Z,8.118286
2019-05-18T01:43:21.344Z,8.128357
2019-05-18T01:44:30.868Z,8.158569
2019-05-18T01:45:40.369Z,8.198853
2019-05-18T01:46:49.925Z,8.198853
2019-05-18T01:48:12.575Z,8.188782
2019-05-18T01:49:09.963Z,8.198853
2019-05-18T01:50:19.471Z,8.198853
2019-05-18T01:51:28.975Z,8.198853
2019-05-18T01:52:38.534Z,8.198853
2019-05-18T01:53:48.032Z,8.188782
2019-05-18T01:54:57.563Z,8.158569
2019-05-18T01:56:07.075Z,8.158569
2019-05-18T01:57:16.638Z,8.148499
2019-05-18T01:58:26.161Z,8.148499
2019-05-18T01:59:35.712Z,8.088074
2019-05-18T02:00:45.223Z,8.057861
2019-05-18T02:01:54.807Z,7.997437
2019-05-18T02:03:04.315Z,7.977295
2019-05-18T02:04:13.830Z,7.977295
2019-05-18T02:05:23.354Z,7.977295
2019-05-18T02:06:32.853Z,7.977295
2019-05-18T02:07:42.404Z,7.967224
2019-05-18T02:08:51.916Z,7.997437
2019-05-18T02:10:01.447Z,7.997437
2019-05-18T02:11:10.952Z,7.997437
2019-05-18T02:12:20.505Z,7.997437
2019-05-18T02:13:30.037Z,7.967224
2019-05-18T02:14:39.546Z,7.977295
2019-05-18T02:15:49.060Z,7.977295
2019-05-18T02:16:58.588Z,7.967224
2019-05-18T02:18:08.145Z,7.947083
2019-05-18T02:19:18.632Z,7.947083
2019-05-18T02:20:28.150Z,7.937012
2019-05-18T02:21:37.664Z,7.947083
2019-05-18T02:22:47.211Z,7.947083
2019-05-18T02:23:56.713Z,7.947083
2019-05-18T02:25:06.244Z,7.937012
2019-05-18T02:26:15.765Z,7.947083
2019-05-18T02:27:25.330Z,7.937012
2019-05-18T02:28:34.843Z,7.926941
2019-05-18T02:29:44.354Z,7.906799
2019-05-18T02:30:53.938Z,7.906799
2019-05-18T02:32:03.381Z,7.896729
2019-05-18T02:33:12.907Z,7.876587
2019-05-18T02:34:22.424Z,7.846375
2019-05-18T02:35:31.938Z,7.826233
2019-05-18T02:36:41.430Z,7.826233
2019-05-18T02:37:50.959Z,7.816162
2019-05-18T02:39:00.472Z,7.796021
2019-05-18T02:40:10.019Z,7.816162
2019-05-18T02:41:19.541Z,7.796021
2019-05-18T02:42:30.768Z,7.796021
2019-05-18T02:43:38.611Z,7.78595
2019-05-18T02:44:48.121Z,7.78595
2019-05-18T02:45:57.632Z,7.78595
2019-05-18T02:47:07.150Z,7.78595
2019-05-18T02:48:16.711Z,7.765808
2019-05-18T02:49:26.204Z,7.755737
2019-05-18T02:50:35.716Z,7.765808
2019-05-18T02:51:45.225Z,7.745667
2019-05-18T02:52:54.740Z,7.725525
2019-05-18T02:54:04.318Z,7.715454
2019-05-18T02:55:13.823Z,7.695312
2019-05-18T02:56:23.323Z,7.695312
2019-05-18T02:57:32.843Z,7.695312
2019-05-18T02:58:42.382Z,7.695312
2019-05-18T02:59:51.900Z,7.695312
2019-05-18T03:01:01.413Z,7.655029
2019-05-18T03:02:10.927Z,7.655029
2019-05-18T03:03:20.474Z,7.655029
2019-05-18T03:04:30.017Z,7.655029
2019-05-18T03:05:39.509Z,7.655029
2019-05-18T03:06:49.028Z,7.655029
2019-05-18T03:07:58.559Z,7.634888
2019-05-18T03:09:08.126Z,7.634888
2019-05-18T03:10:17.655Z,7.655029
2019-05-18T03:11:27.179Z,7.655029
2019-05-18T03:12:36.683Z,7.685242
2019-05-18T03:13:46.211Z,7.685242
2019-05-18T03:14:55.716Z,7.685242
2019-05-18T03:16:05.216Z,7.695312
2019-05-18T03:17:14.734Z,7.695312
2019-05-18T03:18:24.266Z,7.695312
2019-05-18T03:19:33.769Z,7.695312
2019-05-18T03:20:43.317Z,7.695312
2019-05-18T03:21:52.842Z,7.685242
2019-05-18T03:23:02.342Z,7.6651
2019-05-18T03:24:11.913Z,7.685242
2019-05-18T03:25:21.447Z,7.685242
2019-05-18T03:26:30.973Z,7.695312
2019-05-18T03:27:40.492Z,7.6651
2019-05-18T03:28:50.030Z,7.634888
2019-05-18T03:29:59.559Z,7.584534
2019-05-18T03:31:09.090Z,7.574463
2019-05-18T03:32:18.593Z,7.604675
2019-05-18T03:33:29.736Z,7.604675
2019-05-18T03:34:37.617Z,7.604675
2019-05-18T03:35:47.152Z,7.604675
2019-05-18T03:36:56.725Z,7.614746
2019-05-18T03:38:06.201Z,7.604675
2019-05-18T03:39:15.762Z,7.604675
2019-05-18T03:40:25.267Z,7.614746
2019-05-18T03:41:34.764Z,7.614746
2019-05-18T03:42:44.271Z,7.655029
2019-05-18T03:43:53.812Z,7.6651
2019-05-18T03:45:03.343Z,7.655029
2019-05-18T03:46:12.847Z,7.634888
2019-05-18T03:47:23.348Z,7.634888
2019-05-18T03:48:32.949Z,7.655029
2019-05-18T03:49:42.459Z,7.6651
2019-05-18T03:50:51.996Z,7.6651
2019-05-18T03:52:01.519Z,7.655029
2019-05-18T03:53:11.036Z,7.6651
2019-05-18T03:54:20.552Z,7.655029
2019-05-18T03:55:30.061Z,7.614746
2019-05-18T03:56:39.589Z,7.584534
2019-05-18T03:57:50.107Z,7.584534
2019-05-18T03:58:59.611Z,7.574463
2019-05-18T04:00:09.202Z,7.53418
2019-05-18T04:01:18.727Z,7.53418
2019-05-18T04:02:28.258Z,7.53418
2019-05-18T04:03:37.775Z,7.514038
2019-05-18T04:04:47.338Z,7.53418
2019-05-18T04:05:56.851Z,7.54425
2019-05-18T04:07:06.381Z,7.574463
2019-05-18T04:08:15.900Z,7.564392
2019-05-18T04:09:25.427Z,7.584534
2019-05-18T04:10:34.987Z,7.604675
2019-05-18T04:11:44.488Z,7.604675
2019-05-18T04:12:53.991Z,7.604675
2019-05-18T04:14:07.757Z,7.634888
2019-05-18T04:15:13.006Z,7.634888
2019-05-18T04:16:22.574Z,7.655029
2019-05-18T04:17:32.071Z,7.6651
2019-05-18T04:18:41.607Z,7.655029
2019-05-18T04:19:51.188Z,7.695312
2019-05-18T04:21:00.690Z,7.725525
2019-05-18T04:22:10.213Z,7.745667
2019-05-18T04:23:19.725Z,7.755737
2019-05-18T04:24:29.225Z,7.755737
2019-05-18T04:25:38.784Z,7.78595
2019-05-18T04:26:48.273Z,7.816162
2019-05-18T04:27:57.773Z,7.846375
2019-05-18T04:29:07.289Z,7.866516
2019-05-18T04:30:16.831Z,7.876587
2019-05-18T04:31:26.409Z,7.896729
2019-05-18T04:32:35.850Z,7.937012
2019-05-18T04:33:45.362Z,7.997437
2019-05-18T04:34:54.889Z,8.007507
2019-05-18T04:36:04.424Z,8.078003
2019-05-18T04:37:13.959Z,8.088074
2019-05-18T04:38:23.468Z,8.128357
2019-05-18T04:39:32.991Z,8.158569
2019-05-18T04:40:42.535Z,8.178711
2019-05-18T04:41:52.068Z,8.229065
2019-05-18T04:43:01.604Z,8.259277
2019-05-18T04:44:11.133Z,8.279419
2019-05-18T04:45:20.628Z,8.359985
2019-05-18T04:46:30.190Z,8.440552
2019-05-18T04:47:39.728Z,8.511047
2019-05-18T04:48:50.218Z,8.551331
2019-05-18T04:50:04.875Z,8.601685
2019-05-18T04:51:09.255Z,8.631897
2019-05-18T04:52:18.792Z,8.702393
2019-05-18T04:53:28.299Z,8.712463
2019-05-18T04:54:37.810Z,8.742676
2019-05-18T04:55:47.361Z,8.782959
2019-05-18T04:56:57.005Z,8.813171
2019-05-18T04:58:06.516Z,8.843384
2019-05-18T04:59:16.054Z,8.893738
2019-05-18T05:00:25.603Z,8.974304
2019-05-18T05:01:35.151Z,9.024658
2019-05-18T05:02:44.696Z,9.095154
2019-05-18T05:03:54.227Z,9.17572
2019-05-18T05:05:03.753Z,9.286499
2019-05-18T05:06:13.301Z,9.387207
2019-05-18T05:07:22.812Z,9.407349
2019-05-18T05:08:32.321Z,9.477844
2019-05-18T05:09:41.847Z,9.508057
2019-05-18T05:10:51.374Z,9.54834
2019-05-18T05:12:00.988Z,9.588623
2019-05-18T05:13:10.489Z,9.638977
2019-05-18T05:14:20.001Z,9.689331
2019-05-18T05:15:29.517Z,9.739685
2019-05-18T05:16:39.046Z,9.820251
2019-05-18T05:17:48.548Z,9.890747
2019-05-18T05:18:58.073Z,9.971313
2019-05-18T05:20:19.044Z,10.041809
2019-05-18T05:21:19.088Z,10.132446
2019-05-18T05:22:28.597Z,10.223083
2019-05-18T05:23:38.129Z,10.313721
2019-05-18T05:24:47.625Z,10.404358
2019-05-18T05:25:57.139Z,10.484924
2019-05-18T05:27:06.720Z,10.55542
2019-05-18T05:28:16.233Z,10.625916
2019-05-18T05:29:25.763Z,10.68634
2019-05-18T05:30:35.270Z,10.756836
2019-05-18T05:31:44.816Z,10.837402
2019-05-18T05:32:54.332Z,10.897827
2019-05-18T05:34:03.850Z,10.958252
2019-05-18T05:35:13.362Z,11.018677
2019-05-18T05:36:22.936Z,11.079102
2019-05-18T05:37:32.470Z,11.139526
2019-05-18T05:38:41.959Z,11.169739
2019-05-18T05:39:51.476Z,11.220093
2019-05-18T05:41:00.990Z,11.260376
2019-05-18T05:42:10.534Z,11.300659
2019-05-18T05:43:20.048Z,11.361084
2019-05-18T05:44:29.547Z,11.43158
2019-05-18T05:45:39.051Z,11.481934
2019-05-18T05:46:48.585Z,11.502075
2019-05-18T05:47:58.109Z,11.502075
2019-05-18T05:49:07.652Z,11.471863
2019-05-18T05:50:17.198Z,11.481934
2019-05-18T05:51:27.717Z,11.481934
2019-05-18T05:52:37.275Z,11.502075
2019-05-18T05:53:46.825Z,11.542358
2019-05-18T05:54:56.351Z,11.572571
2019-05-18T05:56:05.911Z,11.622925
2019-05-18T05:57:15.533Z,11.69342
2019-05-18T05:58:25.067Z,11.723633
2019-05-18T05:59:34.617Z,11.784058
2019-05-18T06:00:44.242Z,11.81427
2019-05-18T06:01:53.820Z,11.874695
2019-05-18T06:03:03.382Z,11.93512
2019-05-18T06:04:12.911Z,11.985474
2019-05-18T06:05:22.449Z,12.015686
2019-05-18T06:06:31.970Z,12.055969
2019-05-18T06:07:41.528Z,12.096252
2019-05-18T06:08:51.027Z,12.166748
2019-05-18T06:10:00.533Z,12.237244
2019-05-18T06:11:10.060Z,12.307739
2019-05-18T06:12:19.594Z,12.358093
2019-05-18T06:13:29.138Z,12.398376
2019-05-18T06:14:38.709Z,12.489014
2019-05-18T06:15:48.245Z,12.579651
2019-05-18T06:16:57.753Z,12.7005
2019-05-18T06:18:08.361Z,12.730713
2019-05-18T06:19:18.130Z,12.760925
2019-05-18T06:20:27.661Z,12.831421
2019-05-18T06:21:38.801Z,12.861633
2019-05-18T06:22:48.422Z,12.871704
2019-05-18T06:23:57.940Z,12.932129
2019-05-18T06:25:07.849Z,12.952271
2019-05-18T06:26:17.136Z,12.972412
2019-05-18T06:27:26.663Z,13.042908
2019-05-18T06:28:36.213Z,13.153687
2019-05-18T06:29:45.728Z,13.224182
2019-05-18T06:30:55.239Z,13.224182
2019-05-18T06:32:04.739Z,13.284607
2019-05-18T06:33:14.258Z,13.365173
2019-05-18T06:34:23.829Z,13.415527
2019-05-18T06:35:33.352Z,13.465881
2019-05-18T06:36:42.886Z,13.566589
2019-05-18T06:37:52.408Z,13.667297
2019-05-18T06:39:01.952Z,13.707581
2019-05-18T06:40:11.479Z,13.737793
2019-05-18T06:41:20.995Z,13.737793
2019-05-18T06:42:30.539Z,13.747864
2019-05-18T06:43:40.053Z,13.858643
2019-05-18T06:44:49.665Z,13.94928
2019-05-18T06:45:59.158Z,14.029846
2019-05-18T06:47:08.667Z,14.110413
2019-05-18T06:48:18.205Z,14.180908
2019-05-18T06:49:27.807Z,14.281616
2019-05-18T06:50:37.321Z,14.291687
2019-05-18T06:51:46.874Z,14.432678
2019-05-18T06:52:56.387Z,14.58374
2019-05-18T06:54:05.928Z,14.724731
2019-05-18T06:55:15.497Z,14.785156
2019-05-18T06:56:25.021Z,14.916077
2019-05-18T06:57:34.529Z,15.026855
2019-05-18T06:58:44.034Z,15.107422
2019-05-18T06:59:53.703Z,15.20813
2019-05-18T07:01:03.242Z,15.268555
2019-05-18T07:02:12.770Z,15.238342
2019-05-18T07:03:22.316Z,15.187988
2019-05-18T07:04:31.872Z,15.20813
2019-05-18T07:05:41.384Z,15.288696
2019-05-18T07:06:50.904Z,15.308838
2019-05-18T07:08:00.420Z,15.389404
2019-05-18T07:09:13.881Z,15.520325
2019-05-18T07:10:19.500Z,15.762024
2019-05-18T07:11:29.044Z,15.903015
2019-05-18T07:12:38.569Z,15.953369
2019-05-18T07:13:48.100Z,15.953369
2019-05-18T07:15:00.153Z,16.054077
2019-05-18T07:16:07.254Z,16.205139
2019-05-18T07:17:16.775Z,16.376343
2019-05-18T07:18:26.305Z,16.527405
2019-05-18T07:19:35.853Z,16.648254
2019-05-18T07:20:45.371Z,16.648254
2019-05-18T07:21:54.881Z,16.648254
2019-05-18T07:23:04.410Z,16.738892
2019-05-18T07:24:13.960Z,16.759033
2019-05-18T07:25:23.477Z,16.809387
2019-05-18T07:26:32.990Z,17.041016
2019-05-18T07:27:42.503Z,17.242432
2019-05-18T07:28:52.010Z,17.443848
2019-05-18T07:30:01.616Z,17.544556
2019-05-18T07:31:11.131Z,17.564697
2019-05-18T07:32:20.673Z,17.494202
2019-05-18T07:33:30.186Z,17.524414
2019-05-18T07:34:39.756Z,17.544556
2019-05-18T07:35:49.314Z,17.494202
2019-05-18T07:36:58.850Z,17.463989
2019-05-18T07:38:08.381Z,17.393494
2019-05-18T07:39:17.910Z,17.242432
2019-05-18T07:40:27.488Z,17.202148
2019-05-18T07:41:46.140Z,17.161865
2019-05-18T07:42:47.502Z,17.262573
2019-05-18T07:43:57.027Z,17.443848
2019-05-18T07:45:06.602Z,17.544556
2019-05-18T07:46:16.125Z,17.514343
2019-05-18T07:47:25.667Z,17.514343
2019-05-18T07:48:35.183Z,17.443848
2019-05-18T07:49:44.834Z,17.443848
2019-05-18T07:50:54.358Z,17.524414
2019-05-18T07:52:03.892Z,17.665405
2019-05-18T07:53:13.399Z,17.84668
2019-05-18T07:54:22.919Z,18.027954
2019-05-18T07:55:32.485Z,18.219299
2019-05-18T07:56:42.003Z,18.521423
2019-05-18T07:57:51.611Z,18.783264
2019-05-18T07:59:01.067Z,19.075317
2019-05-18T08:00:10.633Z,19.306946
2019-05-18T08:01:20.153Z,19.437866
2019-05-18T08:02:29.674Z,19.306946
2019-05-18T08:03:39.221Z,19.176025
2019-05-18T08:04:48.748Z,19.186096
2019-05-18T08:05:58.291Z,19.23645
2019-05-18T08:07:07.852Z,19.367371
2019-05-18T08:08:17.372Z,19.48822
2019-05-18T08:09:26.903Z,19.639282
2019-05-18T08:10:36.464Z,19.790344
2019-05-18T08:11:45.995Z,19.790344
2019-05-18T08:12:55.530Z,19.699707
2019-05-18T08:14:05.046Z,19.478149
2019-05-18T08:15:14.633Z,19.588928
2019-05-18T08:16:24.161Z,19.699707
2019-05-18T08:17:33.724Z,19.820557
2019-05-18T08:18:43.258Z,19.951477
2019-05-18T08:19:52.830Z,20.11261
2019-05-18T08:21:02.404Z,20.223389
2019-05-18T08:22:11.921Z,20.283813
2019-05-18T08:23:21.436Z,20.414734
2019-05-18T08:24:30.978Z,20.61615
2019-05-18T08:25:40.553Z,20.737
2019-05-18T08:26:50.093Z,20.837708
2019-05-18T08:28:00.648Z,20.968628
2019-05-18T08:29:10.200Z,21.059265
2019-05-18T08:30:19.730Z,21.149902
2019-05-18T08:31:29.293Z,21.25061
2019-05-18T08:32:38.817Z,21.351318
2019-05-18T08:33:48.333Z,21.50238
2019-05-18T08:34:57.855Z,21.50238
2019-05-18T08:36:07.412Z,21.462097
2019-05-18T08:37:16.967Z,21.401672
2019-05-18T08:38:26.492Z,21.421814
2019-05-18T08:39:36.040Z,21.542664
2019-05-18T08:40:46.572Z,21.542664
2019-05-18T08:41:56.150Z,21.482239
2019-05-18T08:43:05.690Z,21.24054
2019-05-18T08:44:15.242Z,21.321106
2019-05-18T08:45:24.783Z,21.421814
2019-05-18T08:46:34.359Z,21.452026
2019-05-18T08:47:44.884Z,21.462097
2019-05-18T08:48:54.406Z,21.723938
2019-05-18T08:50:02.906Z,21.925354
2019-05-18T08:51:12.465Z,22.096558
2019-05-18T08:52:21.993Z,22.056274
2019-05-18T08:53:31.507Z,22.167053
2019-05-18T08:54:41.013Z,22.328186
2019-05-18T08:55:50.541Z,22.388611
2019-05-18T08:57:00.115Z,22.49939
2019-05-18T08:58:09.646Z,22.569885
2019-05-18T08:59:19.169Z,22.680664
2019-05-18T09:00:28.672Z,22.76123
2019-05-18T09:01:38.228Z,22.831726
2019-05-18T09:02:47.742Z,22.942505
2019-05-18T09:03:57.282Z,23.063354
2019-05-18T09:05:06.874Z,23.174133
2019-05-18T09:06:16.416Z,23.274841
2019-05-18T09:07:25.926Z,23.365479
2019-05-18T09:08:35.465Z,23.395691
2019-05-18T09:09:45.010Z,23.435974
2019-05-18T09:10:54.564Z,23.38562
2019-05-18T09:12:04.126Z,23.355408
2019-05-18T09:13:13.672Z,23.234558
2019-05-18T09:14:23.204Z,22.63031
2019-05-18T09:15:32.741Z,22.25769
2019-05-18T09:16:42.299Z,22.197266
2019-05-18T09:17:51.853Z,22.177124
2019-05-18T09:19:01.370Z,22.318115
2019-05-18T09:20:10.895Z,22.348328
2019-05-18T09:21:20.445Z,22.167053
2019-05-18T09:22:29.974Z,22.227478
2019-05-18T09:23:39.479Z,22.24762
2019-05-18T09:24:48.992Z,22.318115
2019-05-18T09:25:58.516Z,22.388611
2019-05-18T09:27:08.081Z,22.408752
2019-05-18T09:28:17.626Z,22.449036
2019-05-18T09:29:27.147Z,22.680664
2019-05-18T09:30:36.687Z,22.731018
2019-05-18T09:31:46.243Z,22.801514
2019-05-18T09:32:55.766Z,22.690735
2019-05-18T09:34:05.298Z,22.781372
2019-05-18T09:35:14.847Z,22.37854
2019-05-18T09:36:24.378Z,22.449036
2019-05-18T09:37:33.915Z,22.63031
2019-05-18T09:38:43.447Z,22.76123
2019-05-18T09:39:52.976Z,22.841797
2019-05-18T09:41:02.524Z,22.912292
2019-05-18T09:42:12.086Z,22.942505
2019-05-18T09:43:21.623Z,23.063354
2019-05-18T09:44:31.147Z,23.184204
2019-05-18T09:45:40.666Z,23.38562
2019-05-18T09:46:50.217Z,23.576965
2019-05-18T09:47:59.746Z,23.687744
2019-05-18T09:49:09.259Z,23.838806
2019-05-18T09:50:18.783Z,23.838806
2019-05-18T09:51:28.378Z,23.838806
2019-05-18T09:52:46.073Z,24.020081
2019-05-18T09:53:51.371Z,24.171143
2019-05-18T09:54:56.930Z,24.14093
2019-05-18T09:56:06.470Z,23.909302
2019-05-18T09:57:16.028Z,23.879089
2019-05-18T09:58:25.576Z,23.858948
2019-05-18T09:59:35.083Z,23.979797
2019-05-18T10:00:45.594Z,24.110718
2019-05-18T10:01:55.245Z,24.211426
2019-05-18T10:03:04.812Z,24.291992
2019-05-18T10:04:14.418Z,24.382629
2019-05-18T10:05:23.993Z,24.453125
2019-05-18T10:06:33.588Z,24.453125
2019-05-18T10:07:43.154Z,24.543762
2019-05-18T10:08:52.678Z,24.614258
2019-05-18T10:10:02.194Z,24.634399
2019-05-18T10:11:11.755Z,24.855957
2019-05-18T10:12:21.354Z,25.057373
2019-05-18T10:13:31.859Z,25.248718
2019-05-18T10:14:41.400Z,25.329285
2019-05-18T10:15:50.921Z,25.379639
2019-05-18T10:17:00.510Z,25.258789
2019-05-18T10:18:10.036Z,25.137939
2019-05-18T10:19:20.573Z,25.39978
2019-05-18T10:20:30.120Z,25.409851
2019-05-18T10:21:39.699Z,25.39978
2019-05-18T10:22:55.786Z,25.470276
2019-05-18T10:23:59.880Z,25.379639
2019-05-18T10:25:09.390Z,25.429993
2019-05-18T10:26:19.037Z,25.530701
2019-05-18T10:27:28.646Z,25.429993
2019-05-18T10:28:38.172Z,25.379639
2019-05-18T10:29:47.741Z,25.228577
2019-05-18T10:30:57.266Z,25.379639
2019-05-18T10:32:06.816Z,25.429993
2019-05-18T10:33:16.349Z,25.691833
2019-05-18T10:34:25.925Z,26.004028
2019-05-18T10:35:35.437Z,26.134949
2019-05-18T10:36:45.037Z,25.953674
2019-05-18T10:37:54.651Z,25.953674
2019-05-18T10:39:04.155Z,26.104736
2019-05-18T10:40:13.686Z,26.094666
2019-05-18T10:41:23.209Z,26.366577
2019-05-18T10:42:32.818Z,26.678772
2019-05-18T10:43:46.780Z,26.729126
2019-05-18T10:44:51.933Z,26.799622
2019-05-18T10:46:01.517Z,26.809692
2019-05-18T10:47:11.057Z,26.729126
2019-05-18T10:48:20.568Z,26.970825
2019-05-18T10:49:30.136Z,27.001038
2019-05-18T10:50:39.644Z,26.588135
2019-05-18T10:51:49.195Z,26.286011
2019-05-18T10:52:58.754Z,26.376648
2019-05-18T10:54:08.270Z,26.326294
2019-05-18T10:55:17.787Z,26.27594
2019-05-18T10:56:27.301Z,26.255798
2019-05-18T10:57:36.889Z,26.366577
2019-05-18T10:58:46.447Z,25.278931
2019-05-18T10:59:55.971Z,24.906311
2019-05-18T11:01:05.516Z,24.684753
2019-05-18T11:02:15.071Z,24.805603
2019-05-18T11:03:24.622Z,25.127869
2019-05-18T11:04:34.147Z,25.218506
2019-05-18T11:05:43.666Z,25.218506
2019-05-18T11:06:53.184Z,25.429993
2019-05-18T11:08:02.809Z,25.329285
2019-05-18T11:09:12.326Z,24.855957
2019-05-18T11:10:21.860Z,24.614258
2019-05-18T11:11:31.375Z,24.533691
2019-05-18T11:12:40.954Z,24.362488
2019-05-18T11:13:50.554Z,24.332275
2019-05-18T11:15:00.146Z,24.362488
2019-05-18T11:16:09.724Z,24.201355
2019-05-18T11:17:19.338Z,24.231567
2019-05-18T11:18:30.363Z,24.080505
2019-05-18T11:19:38.383Z,23.979797
2019-05-18T11:20:47.918Z,23.869019
2019-05-18T11:21:57.431Z,23.75824
2019-05-18T11:23:07.022Z,23.707886
2019-05-18T11:24:16.591Z,23.456116
2019-05-18T11:25:26.119Z,23.284912
2019-05-18T11:26:35.638Z,23.335266
2019-05-18T11:27:45.179Z,23.395691
2019-05-18T11:28:54.732Z,23.38562
2019-05-18T11:30:04.331Z,23.38562
2019-05-18T11:31:13.937Z,23.234558
2019-05-18T11:32:23.529Z,23.053284
2019-05-18T11:33:33.091Z,22.76123
2019-05-18T11:34:42.654Z,22.720947
2019-05-18T11:35:52.184Z,22.781372
2019-05-18T11:37:03.157Z,23.033142
2019-05-18T11:38:11.292Z,23.153992
2019-05-18T11:39:20.827Z,23.214417
2019-05-18T11:40:30.337Z,23.456116
2019-05-18T11:41:39.880Z,23.607178
2019-05-18T11:42:50.436Z,23.607178
2019-05-18T11:44:00.010Z,23.768311
2019-05-18T11:45:10.566Z,23.929443
2019-05-18T11:46:20.068Z,24.110718
2019-05-18T11:47:29.664Z,24.362488
2019-05-18T11:48:39.229Z,24.483337
2019-05-18T11:49:48.761Z,24.684753
2019-05-18T11:50:58.307Z,24.725037
2019-05-18T11:52:07.856Z,24.725037
2019-05-18T11:53:17.478Z,24.906311
2019-05-18T11:54:27.005Z,24.926453
2019-05-18T11:55:37.596Z,24.976807
2019-05-18T11:56:47.193Z,25.359497
2019-05-18T11:57:56.871Z,25.993958
2019-05-18T11:59:06.456Z,26.588135
2019-05-18T12:00:17.021Z,26.799622
2019-05-18T12:01:26.623Z,26.698914
2019-05-18T12:02:36.191Z,26.799622
2019-05-18T12:03:46.757Z,27.514648
2019-05-18T12:04:56.352Z,28.249817
2019-05-18T12:06:05.881Z,28.984985
2019-05-18T12:07:15.480Z,29.377747
2019-05-18T12:08:25.035Z,29.488525
2019-05-18T12:09:34.619Z,29.589233
2019-05-18T12:10:44.130Z,29.710083
2019-05-18T12:11:53.658Z,29.931641
2019-05-18T12:13:03.241Z,29.941711
2019-05-18T12:14:12.796Z,29.861145
2019-05-18T12:15:22.348Z,28.048401
2019-05-18T12:16:31.876Z,26.849976
2019-05-18T12:17:41.394Z,27.111816
2019-05-18T12:18:51.011Z,27.373657
2019-05-18T12:20:00.556Z,27.736206
2019-05-18T12:21:10.084Z,28.199463
2019-05-18T12:22:19.591Z,28.642578
2019-05-18T12:23:29.141Z,28.944702
2019-05-18T12:24:38.684Z,29.317322
2019-05-18T12:25:50.708Z,29.750366
2019-05-18T12:26:57.810Z,29.810791
2019-05-18T12:28:07.399Z,29.951782
2019-05-18T12:29:16.939Z,29.569092
2019-05-18T12:30:26.468Z,29.790649
2019-05-18T12:31:35.988Z,29.841003
2019-05-18T12:32:45.513Z,29.689941
2019-05-18T12:33:55.052Z,29.488525
2019-05-18T12:35:04.574Z,29.16626
2019-05-18T12:36:15.662Z,28.934631
2019-05-18T12:37:23.633Z,28.743286
2019-05-18T12:38:33.184Z,28.481445
2019-05-18T12:39:42.707Z,28.229675
2019-05-18T12:40:52.243Z,27.867126
2019-05-18T12:42:01.803Z,28.008118
2019-05-18T12:43:11.355Z,27.373657
2019-05-18T12:44:20.909Z,26.90033
2019-05-18T12:45:30.423Z,26.729126
2019-05-18T12:46:40.106Z,26.39679
2019-05-18T12:47:49.591Z,26.39679
2019-05-18T12:48:59.153Z,26.749268
2019-05-18T12:50:08.689Z,27.071533
2019-05-18T12:51:18.255Z,27.172241
2019-05-18T12:52:27.795Z,26.77948
2019-05-18T12:53:37.342Z,26.547852
2019-05-18T12:54:47.273Z,26.356506
2019-05-18T12:55:56.446Z,26.185303
2019-05-18T12:57:05.967Z,26.306152
2019-05-18T12:58:15.528Z,26.507568
2019-05-18T12:59:25.047Z,26.739197
2019-05-18T13:00:34.583Z,26.64856
2019-05-18T13:01:44.112Z,26.628418
2019-05-18T13:02:53.656Z,26.356506
2019-05-18T13:04:03.230Z,26.14502
2019-05-18T13:05:12.781Z,26.14502
2019-05-18T13:06:22.301Z,26.245728
2019-05-18T13:07:31.816Z,26.27594
2019-05-18T13:08:41.370Z,26.175232
2019-05-18T13:09:50.907Z,26.376648
2019-05-18T13:11:00.469Z,26.65863
2019-05-18T13:12:11.790Z,26.809692
2019-05-18T13:13:19.532Z,26.990967
2019-05-18T13:14:29.156Z,27.1521
2019-05-18T13:15:38.702Z,27.222595
2019-05-18T13:16:48.231Z,27.323303
2019-05-18T13:17:57.749Z,27.293091
2019-05-18T13:19:07.301Z,27.494507
2019-05-18T13:20:16.829Z,27.746277
2019-05-18T13:21:26.343Z,28.018188
2019-05-18T13:22:35.875Z,27.998047
2019-05-18T13:23:45.438Z,28.008118
2019-05-18T13:24:54.970Z,28.03833